Time;durP1;ratioP1;P1;durP2;ratioP2;P2;SDS_P1;SDS_P2;PMS_P1;PMS_P2;Temp;Humidity;BMP_temperature;BMP_pressure;BME280_temperature;BME280_humidity;BME280_pressure;Samples;Min_cycle;Max_cycle;Signal;HPM_P1;HPM_P2
2022/03/09 00:01:56;;;;;;;18.23;12.00;;;5.60;87.60;;;;;;5009956;28;20698;-31
2022/03/09 00:04:24;;;;;;;14.53;10.83;;;5.60;87.60;;;;;;5009290;28;20252;-31
2022/03/09 00:06:52;;;;;;;17.73;11.43;;;5.50;87.50;;;;;;5013563;28;20245;-30
2022/03/09 00:09:24;;;;;;;17.47;11.50;;;5.50;87.70;;;;;;5007762;28;20321;-31
2022/03/09 00:11:54;;;;;;;21.53;11.03;;;5.40;87.60;;;;;;5016270;28;20220;-30
2022/03/09 00:14:25;;;;;;;16.67;10.97;;;5.40;88.30;;;;;;5021795;28;20709;-31
2022/03/09 00:17:01;;;;;;;16.63;10.73;;;5.40;87.60;;;;;;5022183;28;20224;-30
2022/03/09 00:19:33;;;;;;;16.83;11.27;;;5.30;87.50;;;;;;4993650;28;20205;-31
2022/03/09 00:22:00;;;;;;;15.10;11.77;;;5.30;87.60;;;;;;5025765;28;20376;-31
2022/03/09 00:24:32;;;;;;;19.33;12.23;;;5.30;87.60;;;;;;5021018;28;20225;-30
2022/03/09 00:27:00;;;;;;;16.80;11.47;;;5.30;87.50;;;;;;5011409;28;20276;-30
2022/03/09 00:29:31;;;;;;;15.30;11.23;;;5.20;87.40;;;;;;5026185;28;20251;-31
2022/03/09 00:31:58;;;;;;;16.00;11.90;;;5.20;87.40;;;;;;5027308;28;20205;-31
2022/03/09 00:34:28;;;;;;;15.30;11.27;;;5.20;87.40;;;;;;5005099;28;20569;-31
2022/03/09 00:37:00;;;;;;;18.07;11.43;;;5.20;87.40;;;;;;5008985;28;20216;-31
2022/03/09 00:39:29;;;;;;;17.53;12.23;;;5.10;88.10;;;;;;5007688;28;20197;-31
2022/03/09 00:41:57;;;;;;;13.90;10.77;;;5.10;87.40;;;;;;5007164;28;20316;-31
2022/03/09 00:44:24;;;;;;;15.50;10.93;;;5.10;87.40;;;;;;5007920;28;20248;-31
2022/03/09 00:46:51;;;;;;;16.13;11.43;;;5.10;87.40;;;;;;5016503;28;20217;-31
2022/03/09 00:49:19;;;;;;;16.13;11.77;;;5.00;88.10;;;;;;5026330;28;20209;-31
2022/03/09 00:51:46;;;;;;;14.90;10.97;;;5.00;87.40;;;;;;5009229;28;20205;-31
2022/03/09 00:54:16;;;;;;;20.73;12.03;;;5.00;87.40;;;;;;5018097;28;20298;-31
2022/03/09 00:56:45;;;;;;;19.13;12.13;;;5.00;87.40;;;;;;5015441;28;20554;-31
2022/03/09 00:59:18;;;;;;;17.87;11.57;;;5.00;87.40;;;;;;5007713;28;20218;-31
2022/03/09 01:01:45;;;;;;;15.00;11.33;;;5.00;87.50;;;;;;5007805;28;20197;-30
2022/03/09 01:04:13;;;;;;;16.07;11.17;;;5.00;87.50;;;;;;5008578;28;20308;-31
2022/03/09 01:06:40;;;;;;;16.53;11.50;;;4.90;87.40;;;;;;5014060;28;20300;-30
2022/03/09 01:09:08;;;;;;;15.87;11.60;;;4.90;87.40;;;;;;5026354;28;20228;-31
2022/03/09 01:11:37;;;;;;;15.73;11.40;;;4.90;87.40;;;;;;5021590;28;20691;-33
2022/03/09 01:14:04;;;;;;;16.30;11.57;;;4.90;87.40;;;;;;5027427;28;20208;-30
2022/03/09 01:16:31;;;;;;;17.07;11.87;;;4.90;87.40;;;;;;5016500;28;20324;-30
2022/03/09 01:18:58;;;;;;;16.77;11.80;;;4.80;87.40;;;;;;4992846;28;20216;-30
2022/03/09 01:21:26;;;;;;;16.30;11.37;;;4.80;87.40;;;;;;5016028;28;20200;-30
2022/03/09 01:23:56;;;;;;;16.67;11.80;;;4.80;87.40;;;;;;4993906;28;20213;-29
2022/03/09 01:26:23;;;;;;;15.87;11.17;;;4.80;87.40;;;;;;5028169;28;20620;-29
2022/03/09 01:28:50;;;;;;;19.37;12.23;;;4.80;87.40;;;;;;5017443;28;20213;-30
2022/03/09 01:31:17;;;;;;;18.27;12.07;;;4.80;87.40;;;;;;5011272;28;20205;-30
2022/03/09 01:33:48;;;;;;;17.40;11.00;;;4.80;87.40;;;;;;5011460;28;20201;-30
2022/03/09 01:36:15;;;;;;;15.53;11.23;;;4.70;87.40;;;;;;5012642;28;20206;-30
2022/03/09 01:38:49;;;;;;;17.43;11.07;;;4.70;87.40;;;;;;5010212;28;20296;-30
2022/03/09 01:41:21;;;;;;;15.37;11.43;;;4.70;87.40;;;;;;5025478;28;20209;-30
2022/03/09 01:44:13;;;;;;;15.30;11.07;;;4.70;87.40;;;;;;5031148;28;20275;-30
2022/03/09 01:46:41;;;;;;;16.87;11.37;;;4.70;87.50;;;;;;5027856;28;20221;-31
2022/03/09 01:49:11;;;;;;;18.47;12.23;;;4.70;87.40;;;;;;5029829;28;20211;-31
2022/03/09 01:51:41;;;;;;;18.10;11.13;;;4.70;87.50;;;;;;5027606;28;20206;-30
2022/03/09 01:54:11;;;;;;;19.10;12.47;;;4.70;87.40;;;;;;5028839;28;20275;-30
2022/03/09 01:56:44;;;;;;;23.37;11.63;;;4.60;87.40;;;;;;5021524;28;20742;-31
2022/03/09 01:59:17;;;;;;;17.40;12.07;;;4.60;87.40;;;;;;5021470;28;20292;-31
2022/03/09 02:01:47;;;;;;;14.30;10.67;;;4.60;87.40;;;;;;5027282;28;20200;-31
2022/03/09 02:04:17;;;;;;;18.47;11.33;;;4.60;87.40;;;;;;5012549;28;20229;-30
2022/03/09 02:06:45;;;;;;;17.00;12.57;;;4.60;87.40;;;;;;5027866;28;20691;-31
2022/03/09 02:12:05;;;;;;;16.20;11.30;;;4.60;87.50;;;;;;5027916;28;20205;-31
2022/03/09 02:14:46;;;;;;;16.63;10.53;;;4.50;87.40;;;;;;5022269;28;20294;-31
2022/03/09 02:17:16;;;;;;;17.40;11.73;;;4.50;87.50;;;;;;5028497;28;20922;-30
2022/03/09 02:19:46;;;;;;;16.20;11.00;;;4.50;87.30;;;;;;5010315;28;20248;-30
2022/03/09 02:22:25;;;;;;;16.67;11.20;;;4.50;87.40;;;;;;5021879;28;20663;-30
2022/03/09 02:24:53;;;;;;;15.17;10.77;;;4.40;87.40;;;;;;5025497;28;20221;-30
2022/03/09 02:27:22;;;;;;;16.23;11.50;;;4.40;87.30;;;;;;5019859;28;20196;-31
2022/03/09 02:29:51;;;;;;;15.73;11.10;;;4.40;87.40;;;;;;5028785;28;20232;-43
2022/03/09 02:32:20;;;;;;;16.03;11.20;;;4.40;88.00;;;;;;5028892;28;20695;-44
2022/03/09 02:34:49;;;;;;;15.63;11.23;;;4.40;87.40;;;;;;5016202;28;20202;-43
2022/03/09 02:37:21;;;;;;;14.80;11.17;;;4.30;87.30;;;;;;5010539;28;20333;-43
2022/03/09 02:39:51;;;;;;;15.90;10.67;;;4.30;87.40;;;;;;5009908;28;20276;-43
2022/03/09 02:42:18;;;;;;;15.00;10.93;;;4.30;87.40;;;;;;5022289;28;20614;-42
2022/03/09 02:44:45;;;;;;;16.17;11.60;;;4.30;87.40;;;;;;5025115;28;20218;-44
2022/03/09 02:47:17;;;;;;;16.33;10.53;;;4.30;87.40;;;;;;5009057;28;20233;-42
2022/03/09 02:49:46;;;;;;;18.10;10.97;;;4.30;87.40;;;;;;5022385;28;20197;-44
2022/03/09 02:52:15;;;;;;;18.07;11.93;;;4.30;87.40;;;;;;5028787;28;20228;-42
2022/03/09 02:54:43;;;;;;;17.73;11.20;;;4.30;87.40;;;;;;5029006;28;20228;-42
2022/03/09 02:57:12;;;;;;;14.77;11.20;;;4.20;87.40;;;;;;5028799;28;20679;-44
2022/03/09 02:59:42;;;;;;;17.57;11.33;;;4.20;87.40;;;;;;5011316;28;20298;-44
2022/03/09 03:02:13;;;;;;;16.93;11.90;;;4.20;87.40;;;;;;5026867;28;20762;-43
2022/03/09 03:04:42;;;;;;;16.63;11.53;;;4.20;87.40;;;;;;5014703;28;20217;-42
2022/03/09 03:07:09;;;;;;;14.70;10.47;;;4.10;87.40;;;;;;5009042;28;20205;-42
2022/03/09 03:09:37;;;;;;;15.03;10.47;;;4.10;87.30;;;;;;5018162;28;20209;-43
2022/03/09 03:12:06;;;;;;;17.23;11.27;;;4.10;87.40;;;;;;5000200;28;20209;-42
2022/03/09 03:14:36;;;;;;;15.83;10.93;;;4.10;87.40;;;;;;5009304;28;20255;-43
2022/03/09 03:17:05;;;;;;;17.83;10.93;;;4.10;87.40;;;;;;5009074;28;20201;-43
2022/03/09 03:19:35;;;;;;;19.33;11.03;;;4.10;87.40;;;;;;5013454;28;20271;-42
2022/03/09 03:22:03;;;;;;;17.77;11.47;;;4.00;87.20;;;;;;5010843;28;20668;-29
2022/03/09 03:24:30;;;;;;;18.40;11.53;;;4.00;87.20;;;;;;5026059;28;20694;-29
2022/03/09 03:27:00;;;;;;;20.03;11.10;;;4.00;87.20;;;;;;5027983;28;20209;-30
2022/03/09 03:29:30;;;;;;;15.63;10.80;;;4.00;87.30;;;;;;4993140;28;20568;-30
2022/03/09 03:32:01;;;;;;;15.23;10.77;;;4.00;87.30;;;;;;4991228;28;20213;-30
2022/03/09 03:34:30;;;;;;;14.00;11.20;;;4.00;87.20;;;;;;5029041;28;20231;-30
2022/03/09 03:37:02;;;;;;;17.73;11.97;;;4.00;87.30;;;;;;5010097;28;20205;-30
2022/03/09 03:39:32;;;;;;;16.00;10.83;;;4.00;87.50;;;;;;5024509;28;20201;-30
2022/03/09 03:42:04;;;;;;;13.57;9.87;;;4.00;87.40;;;;;;5027889;28;20559;-30
2022/03/09 03:44:31;;;;;;;16.03;11.27;;;4.00;87.40;;;;;;5027812;28;20381;-30
2022/03/09 03:47:01;;;;;;;17.80;11.37;;;4.00;87.40;;;;;;5017466;28;20264;-30
2022/03/09 03:49:28;;;;;;;18.03;10.90;;;4.00;87.40;;;;;;5008842;28;20204;-30
2022/03/09 03:51:56;;;;;;;13.57;10.37;;;4.00;87.30;;;;;;5008705;28;20672;-30
2022/03/09 03:54:25;;;;;;;14.47;10.33;;;4.00;87.30;;;;;;5007855;28;20244;-30
2022/03/09 03:56:57;;;;;;;14.30;10.27;;;4.00;87.50;;;;;;5009370;28;20256;-30
2022/03/09 03:59:24;;;;;;;16.43;10.70;;;3.90;87.30;;;;;;5009002;28;20220;-31
2022/03/09 04:01:52;;;;;;;13.50;10.27;;;3.90;87.30;;;;;;4991110;28;20198;-30
2022/03/09 04:04:19;;;;;;;15.77;10.83;;;3.90;87.30;;;;;;5015907;28;20307;-31
2022/03/09 04:06:46;;;;;;;18.43;11.73;;;3.90;87.50;;;;;;5025131;28;20243;-31
2022/03/09 04:09:18;;;;;;;15.90;10.77;;;3.90;87.50;;;;;;5024744;28;20205;-30
2022/03/09 04:11:45;;;;;;;16.50;11.47;;;3.90;87.60;;;;;;5027136;28;20193;-31
2022/03/09 04:14:13;;;;;;;16.57;11.60;;;3.90;87.70;;;;;;5014902;28;20312;-30
2022/03/09 04:16:45;;;;;;;16.07;11.90;;;3.90;87.70;;;;;;5007932;28;20217;-31
2022/03/09 04:19:12;;;;;;;16.63;11.20;;;3.80;87.50;;;;;;5018493;28;20193;-30
2022/03/09 04:21:42;;;;;;;14.27;10.77;;;3.80;87.50;;;;;;5013631;28;20321;-30
2022/03/09 04:24:09;;;;;;;16.00;11.40;;;3.70;87.40;;;;;;5007863;28;20263;-30
2022/03/09 04:26:41;;;;;;;14.93;10.93;;;3.70;87.50;;;;;;5009138;28;20226;-30
2022/03/09 04:29:13;;;;;;;17.17;11.67;;;3.70;87.40;;;;;;5022314;28;20219;-30
2022/03/09 04:31:40;;;;;;;14.60;11.00;;;3.60;87.40;;;;;;5021696;28;20212;-30
2022/03/09 04:34:08;;;;;;;17.57;11.43;;;3.60;87.50;;;;;;5012885;28;20301;-31
2022/03/09 04:36:36;;;;;;;15.63;11.07;;;3.60;88.10;;;;;;5022100;28;20240;-30
2022/03/09 04:39:06;;;;;;;16.80;11.70;;;3.60;87.50;;;;;;5026826;28;20235;-31
2022/03/09 04:41:35;;;;;;;16.67;11.63;;;3.50;87.40;;;;;;5022489;28;20212;-31
2022/03/09 04:44:05;;;;;;;14.80;11.03;;;3.50;87.50;;;;;;5026822;28;20220;-30
2022/03/09 04:46:32;;;;;;;15.67;11.20;;;3.50;87.50;;;;;;5017782;28;20642;-30
2022/03/09 04:49:02;;;;;;;16.20;11.47;;;3.50;87.40;;;;;;5013973;28;20308;-30
2022/03/09 04:51:29;;;;;;;20.07;12.20;;;3.50;87.50;;;;;;5007819;28;20201;-30
2022/03/09 04:53:59;;;;;;;15.60;10.77;;;3.50;87.50;;;;;;5018503;28;20255;-30
2022/03/09 04:56:26;;;;;;;18.93;10.87;;;3.40;87.40;;;;;;5023581;28;20247;-30
2022/03/09 04:58:56;;;;;;;15.80;10.93;;;3.40;87.40;;;;;;5026634;28;20262;-30
2022/03/09 05:01:25;;;;;;;15.87;11.03;;;3.40;87.50;;;;;;5025604;28;20208;-30
2022/03/09 05:03:53;;;;;;;17.63;11.77;;;3.40;87.50;;;;;;5022860;28;20202;-30
2022/03/09 05:06:20;;;;;;;16.07;11.27;;;3.30;88.10;;;;;;5021496;28;20236;-30
2022/03/09 05:08:52;;;;;;;15.73;11.03;;;3.30;87.50;;;;;;5026994;28;20212;-30
2022/03/09 05:11:22;;;;;;;14.63;10.73;;;3.30;87.60;;;;;;5024611;28;20196;-44
2022/03/09 05:13:51;;;;;;;17.60;11.27;;;3.30;87.50;;;;;;5011347;28;20267;-41
2022/03/09 05:16:18;;;;;;;15.57;11.40;;;3.20;87.40;;;;;;5026533;28;20300;-42
2022/03/09 05:18:46;;;;;;;15.10;10.97;;;3.20;87.40;;;;;;5024623;28;20219;-42
2022/03/09 05:21:15;;;;;;;18.40;11.27;;;3.20;87.50;;;;;;5027251;28;20686;-44
2022/03/09 05:23:46;;;;;;;18.53;11.70;;;3.20;87.50;;;;;;5009806;28;20221;-42
2022/03/09 05:26:15;;;;;;;16.27;11.20;;;3.10;87.50;;;;;;5026680;28;20306;-29
2022/03/09 05:28:42;;;;;;;15.63;10.90;;;3.10;87.40;;;;;;5009338;28;20201;-29
2022/03/09 05:31:14;;;;;;;17.67;11.23;;;3.10;87.40;;;;;;5016192;28;20223;-29
2022/03/09 05:33:44;;;;;;;17.20;11.60;;;3.00;87.40;;;;;;5011638;28;20213;-29
2022/03/09 05:36:14;;;;;;;18.07;11.63;;;3.00;87.40;;;;;;5026046;28;20213;-29
2022/03/09 05:38:41;;;;;;;20.50;13.57;;;3.00;87.40;;;;;;5012340;28;20296;-29
2022/03/09 05:41:08;;;;;;;21.77;12.70;;;3.00;87.50;;;;;;5016282;28;20220;-30
2022/03/09 05:43:36;;;;;;;20.00;12.70;;;2.90;87.40;;;;;;5007593;28;20217;-30
2022/03/09 05:46:07;;;;;;;18.57;12.10;;;2.90;87.50;;;;;;4990731;28;20217;-29
2022/03/09 05:48:35;;;;;;;16.60;11.90;;;2.90;87.50;;;;;;5024725;28;20205;-30
2022/03/09 05:51:02;;;;;;;21.07;13.00;;;2.90;87.50;;;;;;5020209;28;20212;-29
2022/03/09 05:53:32;;;;;;;21.70;12.10;;;2.90;87.60;;;;;;5017688;28;20324;-30
2022/03/09 05:55:59;;;;;;;20.43;12.67;;;2.80;87.50;;;;;;5007772;28;20220;-30
2022/03/09 05:58:27;;;;;;;20.27;11.87;;;2.80;87.50;;;;;;5023444;28;20676;-30
2022/03/09 06:00:54;;;;;;;16.17;11.90;;;2.80;87.50;;;;;;5018417;28;20514;-29
2022/03/09 06:03:22;;;;;;;16.73;11.70;;;2.80;87.50;;;;;;5013937;28;20201;-29
2022/03/09 06:05:52;;;;;;;21.13;12.40;;;2.80;87.50;;;;;;5018452;28;20232;-29
2022/03/09 06:08:19;;;;;;;17.40;12.00;;;2.80;87.70;;;;;;5027325;28;20205;-30
2022/03/09 06:10:52;;;;;;;17.93;12.33;;;2.80;87.60;;;;;;5015979;28;20591;-30
2022/03/09 06:13:22;;;;;;;16.93;11.03;;;2.80;87.70;;;;;;5020692;28;20197;-29
2022/03/09 06:15:54;;;;;;;16.70;11.00;;;2.80;87.70;;;;;;5012543;28;20821;-29
2022/03/09 06:18:28;;;;;;;17.50;11.33;;;2.70;87.60;;;;;;5016099;28;20732;-29
2022/03/09 06:20:55;;;;;;;19.03;11.97;;;2.70;87.50;;;;;;5016845;28;20688;-29
2022/03/09 06:23:22;;;;;;;18.77;11.47;;;2.70;87.60;;;;;;5016390;28;20209;-30
2022/03/09 06:25:55;;;;;;;19.50;12.13;;;2.70;87.70;;;;;;5021707;28;20227;-30
2022/03/09 06:28:24;;;;;;;21.57;12.63;;;2.80;87.90;;;;;;5025605;28;20197;-31
2022/03/09 06:30:56;;;;;;;20.53;12.10;;;2.80;87.90;;;;;;5018650;28;20215;-30
2022/03/09 06:33:24;;;;;;;23.00;12.13;;;2.80;87.90;;;;;;5009087;28;20232;-30
2022/03/09 06:35:51;;;;;;;21.47;12.17;;;2.80;87.90;;;;;;5019439;28;20845;-30
2022/03/09 06:38:18;;;;;;;32.90;12.60;;;2.80;87.90;;;;;;5026400;28;20634;-30
2022/03/09 06:40:48;;;;;;;24.57;12.00;;;2.80;87.90;;;;;;5010640;28;20225;-30
2022/03/09 06:43:18;;;;;;;23.63;11.87;;;2.80;88.00;;;;;;5025663;28;20726;-30
2022/03/09 06:45:45;;;;;;;32.47;12.73;;;2.80;88.00;;;;;;5024966;28;20228;-30
2022/03/09 06:48:15;;;;;;;27.50;12.27;;;2.80;88.20;;;;;;5013795;28;20233;-30
2022/03/09 06:50:45;;;;;;;23.30;12.13;;;2.80;88.30;;;;;;5009601;28;20364;-30
2022/03/09 06:53:14;;;;;;;18.07;11.83;;;2.90;88.30;;;;;;5023445;28;20712;-30
2022/03/09 06:55:43;;;;;;;22.17;11.80;;;2.90;88.30;;;;;;5026964;28;20236;-30
2022/03/09 06:58:12;;;;;;;21.23;12.70;;;2.90;88.40;;;;;;5026987;28;20224;-30
2022/03/09 07:00:40;;;;;;;26.67;12.70;;;2.90;89.00;;;;;;5025078;28;20209;-30
2022/03/09 07:03:07;;;;;;;20.77;11.27;;;2.90;88.40;;;;;;5025076;28;20205;-30
2022/03/09 07:05:36;;;;;;;20.67;11.87;;;3.00;88.50;;;;;;5016959;28;20224;-30
2022/03/09 07:08:03;;;;;;;18.57;12.40;;;3.00;88.60;;;;;;5008643;28;22543;-30
2022/03/09 07:10:30;;;;;;;18.73;11.70;;;3.00;88.70;;;;;;5021987;28;20217;-30
2022/03/09 07:12:57;;;;;;;21.90;12.17;;;3.10;88.70;;;;;;5003215;28;20197;-30
2022/03/09 07:15:30;;;;;;;17.97;10.93;;;3.10;88.80;;;;;;5024549;28;20239;-30
2022/03/09 07:18:00;;;;;;;19.23;11.57;;;3.20;89.00;;;;;;4998379;28;20209;-30
2022/03/09 07:20:27;;;;;;;20.63;11.20;;;3.20;88.90;;;;;;5016487;28;20205;-30
2022/03/09 07:22:57;;;;;;;18.63;10.93;;;3.30;89.00;;;;;;4998754;28;20209;-31
2022/03/09 07:25:26;;;;;;;23.17;11.57;;;3.40;89.20;;;;;;5009494;28;20256;-30
2022/03/09 07:28:05;;;;;;;21.10;11.53;;;3.40;89.10;;;;;;5008600;28;20226;-30
2022/03/09 07:30:32;;;;;;;17.50;10.90;;;3.50;89.20;;;;;;5024119;28;20201;-30
2022/03/09 07:33:06;;;;;;;28.60;10.57;;;3.60;89.30;;;;;;5014617;28;20210;-30
2022/03/09 07:35:36;;;;;;;19.13;10.13;;;3.60;89.30;;;;;;5011083;28;20291;-30
2022/03/09 07:38:10;;;;;;;20.60;10.67;;;3.70;89.30;;;;;;5011086;28;20229;-30
2022/03/09 07:40:40;;;;;;;15.73;10.07;;;3.80;89.50;;;;;;5014813;28;20220;-30
2022/03/09 07:43:08;;;;;;;19.33;10.30;;;3.90;89.50;;;;;;5027440;28;20198;-30
2022/03/09 07:45:35;;;;;;;18.83;10.30;;;4.00;89.70;;;;;;5006263;28;20555;-30
2022/03/09 07:48:05;;;;;;;16.40;10.20;;;4.00;89.70;;;;;;5005685;28;20313;-30
2022/03/09 07:50:32;;;;;;;18.30;9.97;;;4.10;89.80;;;;;;5018671;28;20220;-31
2022/03/09 07:53:02;;;;;;;16.37;10.50;;;4.20;89.90;;;;;;5010650;28;20237;-30
2022/03/09 07:55:29;;;;;;;17.37;10.10;;;4.30;90.00;;;;;;5018315;28;20418;-31
2022/03/09 07:57:57;;;;;;;16.70;10.57;;;4.40;90.00;;;;;;5009031;28;20300;-31
2022/03/09 08:00:24;;;;;;;16.50;10.63;;;4.40;90.10;;;;;;5016721;28;20579;-30
2022/03/09 08:02:51;;;;;;;17.33;9.83;;;4.50;90.10;;;;;;5008852;28;20236;-30
2022/03/09 08:05:37;;;;;;;13.93;9.53;;;4.60;90.20;;;;;;5013065;28;20219;-31
2022/03/09 08:08:08;;;;;;;16.17;10.50;;;4.70;90.20;;;;;;5025248;28;20220;-30
2022/03/09 08:10:36;;;;;;;15.87;10.17;;;4.80;90.30;;;;;;5018181;28;20320;-30
2022/03/09 08:13:07;;;;;;;14.60;9.60;;;4.80;90.30;;;;;;5019246;28;20514;-30
2022/03/09 08:15:37;;;;;;;16.37;10.60;;;4.90;90.40;;;;;;5017838;28;20213;-31
2022/03/09 08:18:06;;;;;;;15.17;10.37;;;5.00;90.50;;;;;;5007286;28;20209;-30
2022/03/09 08:20:36;;;;;;;15.70;10.57;;;5.00;90.50;;;;;;5011613;28;20209;-31
2022/03/09 08:23:08;;;;;;;16.40;10.23;;;5.10;90.50;;;;;;5025356;28;20211;-30
2022/03/09 08:25:35;;;;;;;14.07;10.13;;;5.20;90.60;;;;;;5006207;28;20695;-31
2022/03/09 08:28:03;;;;;;;15.60;10.47;;;5.20;90.60;;;;;;5026352;28;20275;-31
2022/03/09 08:30:30;;;;;;;16.90;10.00;;;5.30;91.00;;;;;;5025747;28;20205;-31
2022/03/09 08:33:04;;;;;;;19.90;10.47;;;5.40;90.80;;;;;;5025826;28;20278;-31
2022/03/09 08:35:32;;;;;;;18.70;10.60;;;5.50;90.80;;;;;;5026153;28;20224;-31
2022/03/09 08:38:02;;;;;;;15.20;10.77;;;5.50;90.80;;;;;;5015687;28;20300;-31
2022/03/09 08:40:29;;;;;;;19.13;10.80;;;5.60;90.90;;;;;;5009408;28;20477;-30
2022/03/09 08:42:57;;;;;;;19.40;11.30;;;5.70;91.00;;;;;;5015933;28;20487;-30
2022/03/09 08:45:26;;;;;;;17.47;11.27;;;5.80;91.00;;;;;;5025855;28;20213;-30
2022/03/09 08:48:00;;;;;;;16.57;10.03;;;5.90;91.10;;;;;;5007180;28;20331;-30
2022/03/09 08:50:30;;;;;;;16.10;11.10;;;5.90;91.10;;;;;;5022211;28;20204;-30
2022/03/09 08:53:06;;;;;;;20.00;10.97;;;6.00;91.10;;;;;;5022036;28;20236;-31
2022/03/09 08:55:41;;;;;;;17.23;10.83;;;6.10;91.30;;;;;;5019131;28;21566;-30
2022/03/09 08:58:11;;;;;;;17.10;11.10;;;6.20;91.30;;;;;;5005019;28;20376;-30
2022/03/09 09:00:41;;;;;;;17.40;11.13;;;6.30;91.40;;;;;;5020491;28;20695;-31
2022/03/09 09:03:11;;;;;;;19.37;12.03;;;6.40;91.50;;;;;;5010684;28;20198;-31
2022/03/09 09:05:41;;;;;;;20.17;12.10;;;6.50;91.50;;;;;;5023672;28;20626;-44
2022/03/09 09:08:11;;;;;;;18.23;11.50;;;6.60;91.60;;;;;;5014234;28;20279;-44
2022/03/09 09:10:40;;;;;;;20.03;12.17;;;6.70;91.60;;;;;;5021527;28;20249;-42
2022/03/09 09:13:07;;;;;;;17.03;11.83;;;6.70;91.70;;;;;;5016846;28;21999;-31
2022/03/09 09:15:40;;;;;;;20.43;12.77;;;6.80;91.70;;;;;;5020676;28;20208;-44
2022/03/09 09:18:12;;;;;;;18.00;11.43;;;6.90;91.80;;;;;;5008131;28;20217;-44
2022/03/09 09:20:47;;;;;;;18.33;11.70;;;7.00;91.90;;;;;;5011136;28;20303;-42
2022/03/09 09:23:17;;;;;;;27.60;12.10;;;7.10;92.00;;;;;;4997564;28;20625;-43
2022/03/09 09:25:45;;;;;;;21.60;12.20;;;7.10;92.00;;;;;;5015569;28;20197;-44
2022/03/09 09:28:14;;;;;;;18.13;11.87;;;7.20;92.00;;;;;;5024000;28;20314;-44
2022/03/09 09:30:46;;;;;;;22.33;12.80;;;7.30;92.10;;;;;;5020496;28;20667;-41
2022/03/09 09:33:13;;;;;;;19.83;12.47;;;7.40;92.20;;;;;;5018687;28;20201;-30
2022/03/09 09:35:43;;;;;;;21.60;12.90;;;7.40;92.20;;;;;;5019064;28;20217;-30
2022/03/09 09:38:13;;;;;;;18.10;12.60;;;7.50;92.30;;;;;;5011399;28;20256;-30
2022/03/09 09:40:45;;;;;;;21.17;13.43;;;7.60;92.30;;;;;;5021956;28;20208;-30
2022/03/09 09:43:22;;;;;;;19.40;12.73;;;7.70;92.40;;;;;;5021176;28;20233;-30
2022/03/09 09:45:57;;;;;;;23.10;12.90;;;7.80;92.50;;;;;;5025994;28;20827;-30
2022/03/09 09:48:24;;;;;;;22.37;13.30;;;7.90;92.50;;;;;;5016846;28;20704;-30
2022/03/09 09:51:00;;;;;;;19.87;11.20;;;8.00;92.60;;;;;;5018122;28;20270;-31
2022/03/09 09:53:33;;;;;;;22.43;13.17;;;8.10;92.70;;;;;;5017530;28;20233;-30
2022/03/09 09:56:01;;;;;;;22.30;13.23;;;8.20;92.70;;;;;;5019727;28;20224;-31
2022/03/09 09:58:31;;;;;;;22.10;13.50;;;8.30;92.80;;;;;;5019643;28;20217;-30
2022/03/09 10:00:58;;;;;;;19.70;12.40;;;8.30;92.80;;;;;;5007938;28;20205;-31
2022/03/09 10:03:26;;;;;;;23.20;14.60;;;8.40;92.90;;;;;;5019856;28;20209;-30
2022/03/09 10:05:57;;;;;;;23.23;14.00;;;8.50;93.00;;;;;;5023869;28;20194;-30
2022/03/09 10:08:24;;;;;;;24.03;14.30;;;8.60;93.00;;;;;;5012787;28;20313;-30
2022/03/09 10:11:05;;;;;;;21.40;13.40;;;8.70;93.10;;;;;;5009597;28;20197;-30
2022/03/09 10:13:40;;;;;;;30.13;13.73;;;8.70;93.10;;;;;;5023848;28;20319;-30
2022/03/09 10:16:12;;;;;;;22.70;13.93;;;8.80;93.20;;;;;;5025548;28;20279;-30
2022/03/09 10:18:46;;;;;;;22.50;13.87;;;8.90;93.20;;;;;;5023037;28;20386;-30
2022/03/09 10:21:17;;;;;;;29.80;15.23;;;9.00;93.30;;;;;;5022481;28;20228;-31
2022/03/09 10:24:07;;;;;;;24.37;14.80;;;9.10;93.40;;;;;;5026568;28;20193;-31
2022/03/09 10:26:43;;;;;;;23.80;14.20;;;9.20;93.50;;;;;;5029628;28;20251;-31
2022/03/09 10:29:19;;;;;;;26.33;15.23;;;9.20;93.50;;;;;;5019085;28;20201;-32
2022/03/09 10:31:51;;;;;;;25.10;14.43;;;9.30;93.50;;;;;;5009565;28;20299;-31
2022/03/09 10:34:24;;;;;;;25.77;15.43;;;9.40;93.60;;;;;;5001354;28;20206;-31
2022/03/09 10:36:58;;;;;;;29.30;14.60;;;9.50;93.70;;;;;;5019710;28;20196;-30
2022/03/09 10:39:43;;;;;;;24.30;15.43;;;9.60;93.80;;;;;;5024039;28;20243;-31
2022/03/09 10:42:27;;;;;;;22.93;14.50;;;9.70;93.90;;;;;;5000875;28;20205;-30
2022/03/09 10:45:07;;;;;;;25.80;14.63;;;9.80;94.00;;;;;;5000004;28;20305;-30
2022/03/09 10:47:45;;;;;;;26.03;14.97;;;9.90;94.00;;;;;;5012988;28;20272;-30
2022/03/09 10:50:25;;;;;;;26.43;15.30;;;10.00;93.60;;;;;;5012740;28;20212;-30
2022/03/09 10:52:55;;;;;;;22.60;14.17;;;10.00;93.60;;;;;;5008849;28;20609;-30
2022/03/09 10:55:31;;;;;;;27.20;14.27;;;10.10;93.70;;;;;;5017626;28;20209;-30
2022/03/09 10:58:16;;;;;;;27.00;15.57;;;10.20;93.70;;;;;;5020549;28;20221;-30
2022/03/09 11:00:45;;;;;;;26.60;14.97;;;10.30;93.80;;;;;;5013988;28;20301;-42
2022/03/09 11:03:20;;;;;;;25.90;16.03;;;10.40;93.90;;;;;;5009240;28;20197;-42
2022/03/09 11:06:00;;;;;;;26.63;15.63;;;10.50;94.00;;;;;;5010984;28;20221;-41
2022/03/09 11:08:31;;;;;;;27.10;16.03;;;10.60;94.00;;;;;;5018123;28;20257;-42
2022/03/09 11:10:59;;;;;;;26.80;16.57;;;10.70;94.10;;;;;;5013669;28;20209;-41
2022/03/09 11:13:29;;;;;;;29.17;17.13;;;10.70;94.10;;;;;;5022037;28;20469;-41
2022/03/09 11:15:56;;;;;;;25.43;16.07;;;10.90;94.20;;;;;;5014397;28;20292;-42
2022/03/09 11:18:26;;;;;;;28.93;16.40;;;10.90;94.30;;;;;;5016871;28;20611;-42
2022/03/09 11:21:08;;;;;;;28.97;16.27;;;11.00;94.30;;;;;;5005731;28;20197;-42
2022/03/09 11:23:41;;;;;;;26.60;16.40;;;11.10;94.40;;;;;;5018812;28;20225;-42
2022/03/09 11:26:18;;;;;;;27.80;16.03;;;11.20;94.50;;;;;;5018108;28;20272;-42
2022/03/09 11:28:48;;;;;;;26.67;15.97;;;11.20;94.50;;;;;;5023376;28;20225;-42
2022/03/09 11:31:20;;;;;;;27.30;16.93;;;11.30;94.50;;;;;;5007160;28;20200;-41
2022/03/09 11:33:53;;;;;;;27.47;15.93;;;11.40;94.60;;;;;;5008751;28;20224;-42
2022/03/09 11:36:27;;;;;;;28.90;17.40;;;11.50;94.70;;;;;;4992764;28;20197;-42
2022/03/09 11:39:17;;;;;;;27.37;17.43;;;11.50;94.70;;;;;;5022710;28;20221;-42
2022/03/09 11:41:46;;;;;;;28.30;17.47;;;11.60;94.70;;;;;;5012278;28;20220;-42
2022/03/09 11:44:24;;;;;;;28.30;17.17;;;11.70;94.80;;;;;;5012852;28;20197;-42
2022/03/09 11:46:58;;;;;;;27.23;16.60;;;11.80;94.80;;;;;;5000299;28;20204;-43
2022/03/09 11:49:52;;;;;;;30.17;17.43;;;11.80;94.90;;;;;;5006101;28;20632;-43
2022/03/09 11:52:27;;;;;;;27.60;16.90;;;11.90;94.90;;;;;;5015685;28;20611;-43
2022/03/09 11:54:59;;;;;;;26.87;16.50;;;12.00;95.00;;;;;;5000505;28;20571;-44
2022/03/09 11:57:51;;;;;;;26.97;15.80;;;12.00;95.00;;;;;;5018610;28;20661;-44
2022/03/09 12:00:22;;;;;;;25.97;16.07;;;12.10;95.10;;;;;;4987636;28;20282;-43
2022/03/09 12:03:00;;;;;;;28.23;16.90;;;12.20;95.20;;;;;;5011235;28;20651;-43
2022/03/09 12:05:39;;;;;;;25.20;16.03;;;12.30;95.20;;;;;;5014631;28;20243;-44
2022/03/09 12:08:10;;;;;;;26.67;16.03;;;12.30;95.30;;;;;;5012304;28;20257;-44
2022/03/09 12:10:55;;;;;;;25.03;16.20;;;12.40;95.30;;;;;;5013551;28;20299;-44
2022/03/09 12:13:35;;;;;;;30.03;16.90;;;12.50;95.40;;;;;;5010395;28;20245;-43
2022/03/09 12:16:12;;;;;;;30.10;17.13;;;12.50;95.30;;;;;;5015143;28;20223;-44
2022/03/09 12:18:42;;;;;;;27.07;16.70;;;12.60;95.50;;;;;;5000087;28;20202;-44
2022/03/09 12:21:14;;;;;;;29.93;17.13;;;12.70;95.50;;;;;;5000556;28;20635;-44
2022/03/09 12:24:00;;;;;;;40.17;18.53;;;12.70;95.50;;;;;;5004048;28;20737;-44
2022/03/09 12:26:41;;;;;;;34.87;19.10;;;12.80;95.50;;;;;;5007878;28;20314;-43
2022/03/09 12:29:20;;;;;;;29.30;16.53;;;12.90;95.60;;;;;;5020248;28;20215;-42
2022/03/09 12:32:11;;;;;;;39.13;19.27;;;12.90;95.70;;;;;;5005546;28;20205;-31
2022/03/09 12:34:40;;;;;;;31.37;17.43;;;13.00;95.50;;;;;;5008952;28;20200;-31
2022/03/09 12:37:13;;;;;;;28.07;17.10;;;13.00;95.70;;;;;;5010172;28;20256;-31
2022/03/09 12:39:48;;;;;;;27.63;15.33;;;13.10;95.60;;;;;;5010182;28;20201;-31
2022/03/09 12:42:18;;;;;;;25.53;15.00;;;13.10;95.70;;;;;;5011396;28;20197;-31
2022/03/09 12:44:47;;;;;;;26.95;16.05;;;13.20;95.70;;;;;;5015315;28;20210;-31
2022/03/09 12:47:16;;;;;;;25.33;16.57;;;13.30;96.00;;;;;;5006173;28;20225;-32
2022/03/09 12:49:46;;;;;;;29.00;16.00;;;13.30;95.70;;;;;;5015732;28;20210;-31
2022/03/09 12:52:20;;;;;;;25.47;15.77;;;13.40;95.80;;;;;;5000570;28;20805;-31
2022/03/09 12:54:55;;;;;;;25.50;15.25;;;13.40;95.80;;;;;;5014635;28;20693;-31
2022/03/09 12:57:23;;;;;;;24.93;14.90;;;13.50;95.80;;;;;;5008759;28;20780;-44